sensor_id;sensor_type;location;lat;lon;timestamp;temperature;humidity
53208;DHT22;39093;52.788;6.940;2023-11-19T00:00:49;10.50;99.90
53208;DHT22;39093;52.788;6.940;2023-11-19T00:03:20;10.50;99.90
53208;DHT22;39093;52.788;6.940;2023-11-19T00:05:47;10.50;99.90
53208;DHT22;39093;52.788;6.940;2023-11-19T00:08:14;10.50;99.90
53208;DHT22;39093;52.788;6.940;2023-11-19T00:10:41;10.50;99.90
53208;DHT22;39093;52.788;6.940;2023-11-19T00:13:08;10.60;99.90
53208;DHT22;39093;52.788;6.940;2023-11-19T00:15:37;10.50;99.90
53208;DHT22;39093;52.788;6.940;2023-11-19T00:18:04;10.60;99.90
53208;DHT22;39093;52.788;6.940;2023-11-19T00:20:31;10.60;99.90
53208;DHT22;39093;52.788;6.940;2023-11-19T00:22:58;10.70;99.90
53208;DHT22;39093;52.788;6.940;2023-11-19T00:25:25;10.70;99.90
53208;DHT22;39093;52.788;6.940;2023-11-19T00:27:52;10.70;99.90
53208;DHT22;39093;52.788;6.940;2023-11-19T00:30:21;10.70;99.90
53208;DHT22;39093;52.788;6.940;2023-11-19T00:32:48;10.70;99.90
53208;DHT22;39093;52.788;6.940;2023-11-19T00:35:15;10.70;99.90
53208;DHT22;39093;52.788;6.940;2023-11-19T00:37:43;10.80;99.90
53208;DHT22;39093;52.788;6.940;2023-11-19T00:40:16;10.80;99.90
53208;DHT22;39093;52.788;6.940;2023-11-19T00:42:45;10.80;99.90
53208;DHT22;39093;52.788;6.940;2023-11-19T00:45:12;10.80;99.90
53208;DHT22;39093;52.788;6.940;2023-11-19T00:47:40;10.90;99.90
53208;DHT22;39093;52.788;6.940;2023-11-19T00:50:07;10.90;99.90
53208;DHT22;39093;52.788;6.940;2023-11-19T00:52:38;10.90;99.90
53208;DHT22;39093;52.788;6.940;2023-11-19T00:55:05;10.90;99.90
53208;DHT22;39093;52.788;6.940;2023-11-19T00:57:33;11.00;99.90
53208;DHT22;39093;52.788;6.940;2023-11-19T01:00:00;11.10;99.90
53208;DHT22;39093;52.788;6.940;2023-11-19T01:02:27;11.10;99.90
53208;DHT22;39093;52.788;6.940;2023-11-19T01:04:55;11.10;99.90
53208;DHT22;39093;52.788;6.940;2023-11-19T01:07:22;11.10;99.90
53208;DHT22;39093;52.788;6.940;2023-11-19T01:09:51;11.10;99.90
53208;DHT22;39093;52.788;6.940;2023-11-19T01:12:18;11.10;99.90
53208;DHT22;39093;52.788;6.940;2023-11-19T01:14:45;11.10;99.90
53208;DHT22;39093;52.788;6.940;2023-11-19T01:17:11;11.10;99.90
53208;DHT22;39093;52.788;6.940;2023-11-19T01:19:38;11.10;99.90
53208;DHT22;39093;52.788;6.940;2023-11-19T01:22:05;11.10;99.90
53208;DHT22;39093;52.788;6.940;2023-11-19T01:24:32;11.10;99.90
53208;DHT22;39093;52.788;6.940;2023-11-19T01:26:59;11.10;99.90
53208;DHT22;39093;52.788;6.940;2023-11-19T01:29:27;11.10;99.90
53208;DHT22;39093;52.788;6.940;2023-11-19T01:31:54;11.40;99.90
53208;DHT22;39093;52.788;6.940;2023-11-19T01:34:21;11.10;99.90
53208;DHT22;39093;52.788;6.940;2023-11-19T01:36:48;11.20;99.90
53208;DHT22;39093;52.788;6.940;2023-11-19T01:39:16;11.10;99.90
53208;DHT22;39093;52.788;6.940;2023-11-19T01:41:43;11.20;99.90
53208;DHT22;39093;52.788;6.940;2023-11-19T01:44:10;11.20;99.90
53208;DHT22;39093;52.788;6.940;2023-11-19T01:46:42;11.20;99.90
53208;DHT22;39093;52.788;6.940;2023-11-19T01:49:11;11.30;99.90
53208;DHT22;39093;52.788;6.940;2023-11-19T01:51:39;11.40;99.90
53208;DHT22;39093;52.788;6.940;2023-11-19T01:54:07;11.40;99.90
53208;DHT22;39093;52.788;6.940;2023-11-19T01:56:35;11.30;99.90
53208;DHT22;39093;52.788;6.940;2023-11-19T01:59:03;11.40;99.90
53208;DHT22;39093;52.788;6.940;2023-11-19T02:01:30;11.40;99.90
53208;DHT22;39093;52.788;6.940;2023-11-19T02:04:01;11.30;99.90
53208;DHT22;39093;52.788;6.940;2023-11-19T02:06:30;11.40;99.90
53208;DHT22;39093;52.788;6.940;2023-11-19T02:08:58;11.40;99.90
53208;DHT22;39093;52.788;6.940;2023-11-19T02:11:25;11.40;99.90
53208;DHT22;39093;52.788;6.940;2023-11-19T02:13:57;11.40;99.90
53208;DHT22;39093;52.788;6.940;2023-11-19T02:16:24;11.50;99.90
53208;DHT22;39093;52.788;6.940;2023-11-19T02:18:51;11.40;99.90
53208;DHT22;39093;52.788;6.940;2023-11-19T02:21:18;11.50;99.90
53208;DHT22;39093;52.788;6.940;2023-11-19T02:23:45;11.60;99.90
53208;DHT22;39093;52.788;6.940;2023-11-19T02:26:22;11.60;99.90
53208;DHT22;39093;52.788;6.940;2023-11-19T02:28:51;11.50;99.90
53208;DHT22;39093;52.788;6.940;2023-11-19T02:31:19;11.50;99.90
53208;DHT22;39093;52.788;6.940;2023-11-19T02:33:47;11.50;99.90
53208;DHT22;39093;52.788;6.940;2023-11-19T02:36:14;11.50;99.90
53208;DHT22;39093;52.788;6.940;2023-11-19T02:38:41;11.50;99.90
53208;DHT22;39093;52.788;6.940;2023-11-19T02:41:08;11.50;99.90
53208;DHT22;39093;52.788;6.940;2023-11-19T02:43:37;11.50;99.90
53208;DHT22;39093;52.788;6.940;2023-11-19T02:46:04;11.50;99.90
53208;DHT22;39093;52.788;6.940;2023-11-19T02:48:38;11.50;99.90
53208;DHT22;39093;52.788;6.940;2023-11-19T02:51:05;11.40;99.90
53208;DHT22;39093;52.788;6.940;2023-11-19T02:53:37;11.40;99.90
53208;DHT22;39093;52.788;6.940;2023-11-19T02:56:04;11.40;99.90
53208;DHT22;39093;52.788;6.940;2023-11-19T02:58:50;11.40;99.90
53208;DHT22;39093;52.788;6.940;2023-11-19T03:01:24;11.50;99.90
53208;DHT22;39093;52.788;6.940;2023-11-19T03:03:58;11.50;99.90
53208;DHT22;39093;52.788;6.940;2023-11-19T03:06:26;11.60;99.90
53208;DHT22;39093;52.788;6.940;2023-11-19T03:08:55;11.60;99.90
53208;DHT22;39093;52.788;6.940;2023-11-19T03:11:22;11.60;99.90
53208;DHT22;39093;52.788;6.940;2023-11-19T03:13:49;11.60;99.90
53208;DHT22;39093;52.788;6.940;2023-11-19T03:16:16;11.60;99.90
53208;DHT22;39093;52.788;6.940;2023-11-19T03:18:44;11.60;99.90
53208;DHT22;39093;52.788;6.940;2023-11-19T03:21:11;11.60;99.90
53208;DHT22;39093;52.788;6.940;2023-11-19T03:23:38;11.60;99.90
53208;DHT22;39093;52.788;6.940;2023-11-19T03:26:07;11.60;99.90
53208;DHT22;39093;52.788;6.940;2023-11-19T03:28:38;11.60;99.90
53208;DHT22;39093;52.788;6.940;2023-11-19T03:31:05;11.60;99.90
53208;DHT22;39093;52.788;6.940;2023-11-19T03:33:35;11.60;99.90
53208;DHT22;39093;52.788;6.940;2023-11-19T03:36:03;11.70;99.90
53208;DHT22;39093;52.788;6.940;2023-11-19T03:38:30;11.70;99.90
53208;DHT22;39093;52.788;6.940;2023-11-19T03:40:57;11.70;99.90
53208;DHT22;39093;52.788;6.940;2023-11-19T03:43:23;11.70;99.90
53208;DHT22;39093;52.788;6.940;2023-11-19T03:45:50;11.70;99.90
53208;DHT22;39093;52.788;6.940;2023-11-19T03:48:17;11.70;99.90
53208;DHT22;39093;52.788;6.940;2023-11-19T03:50:45;11.70;99.90
53208;DHT22;39093;52.788;6.940;2023-11-19T03:53:12;11.70;99.90
53208;DHT22;39093;52.788;6.940;2023-11-19T03:55:40;11.70;99.90
53208;DHT22;39093;52.788;6.940;2023-11-19T03:58:07;11.70;99.90
53208;DHT22;39093;52.788;6.940;2023-11-19T04:00:34;11.70;99.90
53208;DHT22;39093;52.788;6.940;2023-11-19T04:03:01;11.70;99.90
53208;DHT22;39093;52.788;6.940;2023-11-19T04:05:30;11.60;99.90
53208;DHT22;39093;52.788;6.940;2023-11-19T04:07:57;11.60;99.90
53208;DHT22;39093;52.788;6.940;2023-11-19T04:10:23;11.70;99.90
53208;DHT22;39093;52.788;6.940;2023-11-19T04:12:51;11.70;99.90
53208;DHT22;39093;52.788;6.940;2023-11-19T04:15:18;11.60;99.90
53208;DHT22;39093;52.788;6.940;2023-11-19T04:17:45;11.50;99.90
53208;DHT22;39093;52.788;6.940;2023-11-19T04:20:12;11.50;99.90
53208;DHT22;39093;52.788;6.940;2023-11-19T04:22:41;11.50;99.90
53208;DHT22;39093;52.788;6.940;2023-11-19T04:25:11;11.60;99.90
53208;DHT22;39093;52.788;6.940;2023-11-19T04:27:38;11.50;99.90
53208;DHT22;39093;52.788;6.940;2023-11-19T04:30:05;11.50;99.90
53208;DHT22;39093;52.788;6.940;2023-11-19T04:32:37;11.40;99.90
53208;DHT22;39093;52.788;6.940;2023-11-19T04:35:04;11.50;99.90
53208;DHT22;39093;52.788;6.940;2023-11-19T04:37:31;11.50;99.90
53208;DHT22;39093;52.788;6.940;2023-11-19T04:39:58;11.50;99.90
53208;DHT22;39093;52.788;6.940;2023-11-19T04:42:26;11.50;99.90
53208;DHT22;39093;52.788;6.940;2023-11-19T04:44:53;11.50;99.90
53208;DHT22;39093;52.788;6.940;2023-11-19T04:47:21;11.50;99.90
53208;DHT22;39093;52.788;6.940;2023-11-19T04:49:48;11.50;99.90
53208;DHT22;39093;52.788;6.940;2023-11-19T04:52:15;11.60;99.90
53208;DHT22;39093;52.788;6.940;2023-11-19T04:54:42;11.60;99.90
53208;DHT22;39093;52.788;6.940;2023-11-19T04:57:13;11.60;99.90
53208;DHT22;39093;52.788;6.940;2023-11-19T04:59:40;11.50;99.90
53208;DHT22;39093;52.788;6.940;2023-11-19T05:02:08;11.60;99.90
53208;DHT22;39093;52.788;6.940;2023-11-19T05:04:35;11.60;99.90
53208;DHT22;39093;52.788;6.940;2023-11-19T05:07:02;11.60;99.90
53208;DHT22;39093;52.788;6.940;2023-11-19T05:09:30;11.60;99.90
53208;DHT22;39093;52.788;6.940;2023-11-19T05:11:57;11.50;99.90
53208;DHT22;39093;52.788;6.940;2023-11-19T05:14:24;11.50;99.90
53208;DHT22;39093;52.788;6.940;2023-11-19T05:16:51;11.50;99.90
53208;DHT22;39093;52.788;6.940;2023-11-19T05:19:21;11.50;99.90
53208;DHT22;39093;52.788;6.940;2023-11-19T05:21:48;11.50;99.90
53208;DHT22;39093;52.788;6.940;2023-11-19T05:24:18;11.50;99.90
53208;DHT22;39093;52.788;6.940;2023-11-19T05:26:47;11.50;99.90
53208;DHT22;39093;52.788;6.940;2023-11-19T05:29:14;11.50;99.90
53208;DHT22;39093;52.788;6.940;2023-11-19T05:31:44;11.50;99.90
53208;DHT22;39093;52.788;6.940;2023-11-19T05:34:11;11.50;99.90
53208;DHT22;39093;52.788;6.940;2023-11-19T05:36:38;11.50;99.90
53208;DHT22;39093;52.788;6.940;2023-11-19T05:39:06;11.50;99.90
53208;DHT22;39093;52.788;6.940;2023-11-19T05:41:33;11.50;99.90
53208;DHT22;39093;52.788;6.940;2023-11-19T05:44:00;11.40;99.90
53208;DHT22;39093;52.788;6.940;2023-11-19T05:46:28;11.50;99.90
53208;DHT22;39093;52.788;6.940;2023-11-19T05:48:57;11.40;99.90
53208;DHT22;39093;52.788;6.940;2023-11-19T05:51:24;11.50;99.90
53208;DHT22;39093;52.788;6.940;2023-11-19T05:53:52;11.50;99.90
53208;DHT22;39093;52.788;6.940;2023-11-19T05:56:19;11.40;99.90
53208;DHT22;39093;52.788;6.940;2023-11-19T05:58:48;11.40;99.90
53208;DHT22;39093;52.788;6.940;2023-11-19T06:01:18;11.40;99.90
53208;DHT22;39093;52.788;6.940;2023-11-19T06:03:47;11.40;99.90
53208;DHT22;39093;52.788;6.940;2023-11-19T06:06:17;11.50;99.90
53208;DHT22;39093;52.788;6.940;2023-11-19T06:08:44;11.40;99.90
53208;DHT22;39093;52.788;6.940;2023-11-19T06:11:11;11.40;99.90
53208;DHT22;39093;52.788;6.940;2023-11-19T06:13:45;11.50;99.90
53208;DHT22;39093;52.788;6.940;2023-11-19T06:16:13;11.40;99.90
53208;DHT22;39093;52.788;6.940;2023-11-19T06:18:40;11.50;99.90
53208;DHT22;39093;52.788;6.940;2023-11-19T06:21:12;11.50;99.90
53208;DHT22;39093;52.788;6.940;2023-11-19T06:23:39;11.60;99.90
53208;DHT22;39093;52.788;6.940;2023-11-19T06:26:06;11.50;99.90
53208;DHT22;39093;52.788;6.940;2023-11-19T06:28:35;11.50;99.90
53208;DHT22;39093;52.788;6.940;2023-11-19T06:31:03;11.60;99.90
53208;DHT22;39093;52.788;6.940;2023-11-19T06:33:30;11.50;99.90
53208;DHT22;39093;52.788;6.940;2023-11-19T06:35:59;11.50;99.90
53208;DHT22;39093;52.788;6.940;2023-11-19T06:38:26;11.50;99.90
53208;DHT22;39093;52.788;6.940;2023-11-19T06:40:53;11.40;99.90
53208;DHT22;39093;52.788;6.940;2023-11-19T06:43:20;11.50;99.90
53208;DHT22;39093;52.788;6.940;2023-11-19T06:45:48;11.40;99.90
53208;DHT22;39093;52.788;6.940;2023-11-19T06:48:15;11.40;99.90
53208;DHT22;39093;52.788;6.940;2023-11-19T06:50:42;11.50;99.90
53208;DHT22;39093;52.788;6.940;2023-11-19T06:53:12;11.40;99.90
53208;DHT22;39093;52.788;6.940;2023-11-19T06:55:39;11.40;99.90
53208;DHT22;39093;52.788;6.940;2023-11-19T06:58:06;11.40;99.90
53208;DHT22;39093;52.788;6.940;2023-11-19T07:00:33;11.30;99.90
53208;DHT22;39093;52.788;6.940;2023-11-19T07:03:02;11.30;99.90
53208;DHT22;39093;52.788;6.940;2023-11-19T07:05:29;11.20;99.90
53208;DHT22;39093;52.788;6.940;2023-11-19T07:07:57;11.30;99.90
53208;DHT22;39093;52.788;6.940;2023-11-19T07:10:24;11.30;99.90
53208;DHT22;39093;52.788;6.940;2023-11-19T07:12:51;11.30;99.90
53208;DHT22;39093;52.788;6.940;2023-11-19T07:15:18;11.30;99.90
53208;DHT22;39093;52.788;6.940;2023-11-19T07:17:45;11.20;99.90
53208;DHT22;39093;52.788;6.940;2023-11-19T07:20:12;11.20;99.90
53208;DHT22;39093;52.788;6.940;2023-11-19T07:22:45;11.10;99.90
53208;DHT22;39093;52.788;6.940;2023-11-19T07:25:15;11.10;99.90
53208;DHT22;39093;52.788;6.940;2023-11-19T07:27:43;11.10;99.90
53208;DHT22;39093;52.788;6.940;2023-11-19T07:30:10;11.10;99.90
53208;DHT22;39093;52.788;6.940;2023-11-19T07:32:37;11.10;99.90
53208;DHT22;39093;52.788;6.940;2023-11-19T07:35:06;11.20;99.90
53208;DHT22;39093;52.788;6.940;2023-11-19T07:37:34;11.00;99.90
53208;DHT22;39093;52.788;6.940;2023-11-19T07:40:10;11.00;99.90
53208;DHT22;39093;52.788;6.940;2023-11-19T07:42:38;10.90;99.90
53208;DHT22;39093;52.788;6.940;2023-11-19T07:45:05;11.00;99.90
53208;DHT22;39093;52.788;6.940;2023-11-19T07:47:32;11.10;99.90
53208;DHT22;39093;52.788;6.940;2023-11-19T07:49:59;11.10;99.90
53208;DHT22;39093;52.788;6.940;2023-11-19T07:52:26;11.20;99.90
53208;DHT22;39093;52.788;6.940;2023-11-19T07:54:53;11.10;99.90
53208;DHT22;39093;52.788;6.940;2023-11-19T07:57:20;11.10;99.90
53208;DHT22;39093;52.788;6.940;2023-11-19T07:59:47;11.10;99.90
53208;DHT22;39093;52.788;6.940;2023-11-19T08:02:14;11.20;99.90
53208;DHT22;39093;52.788;6.940;2023-11-19T08:04:41;11.30;99.90
53208;DHT22;39093;52.788;6.940;2023-11-19T08:07:12;11.20;99.90
53208;DHT22;39093;52.788;6.940;2023-11-19T08:09:38;11.30;99.90
53208;DHT22;39093;52.788;6.940;2023-11-19T08:12:06;11.20;99.90
53208;DHT22;39093;52.788;6.940;2023-11-19T08:14:34;11.30;99.90
53208;DHT22;39093;52.788;6.940;2023-11-19T08:17:01;11.30;99.90
53208;DHT22;39093;52.788;6.940;2023-11-19T08:19:28;11.30;99.90
53208;DHT22;39093;52.788;6.940;2023-11-19T08:21:58;11.30;99.90
53208;DHT22;39093;52.788;6.940;2023-11-19T08:24:25;11.30;99.90
53208;DHT22;39093;52.788;6.940;2023-11-19T08:26:52;11.30;99.90
53208;DHT22;39093;52.788;6.940;2023-11-19T08:29:22;11.30;99.90
53208;DHT22;39093;52.788;6.940;2023-11-19T08:31:49;11.30;99.90
53208;DHT22;39093;52.788;6.940;2023-11-19T08:34:17;11.30;99.90
53208;DHT22;39093;52.788;6.940;2023-11-19T08:36:44;11.20;99.90
53208;DHT22;39093;52.788;6.940;2023-11-19T08:39:11;11.10;99.90
53208;DHT22;39093;52.788;6.940;2023-11-19T08:41:38;11.10;99.90
53208;DHT22;39093;52.788;6.940;2023-11-19T08:44:06;11.10;99.90
53208;DHT22;39093;52.788;6.940;2023-11-19T08:46:33;11.00;99.90
53208;DHT22;39093;52.788;6.940;2023-11-19T08:49:00;11.00;99.90
53208;DHT22;39093;52.788;6.940;2023-11-19T08:51:27;11.10;99.90
53208;DHT22;39093;52.788;6.940;2023-11-19T08:53:55;11.10;99.90
53208;DHT22;39093;52.788;6.940;2023-11-19T08:56:22;11.10;99.90
53208;DHT22;39093;52.788;6.940;2023-11-19T08:58:49;11.20;99.90
53208;DHT22;39093;52.788;6.940;2023-11-19T09:01:16;11.10;99.90
53208;DHT22;39093;52.788;6.940;2023-11-19T09:03:43;11.20;99.90
53208;DHT22;39093;52.788;6.940;2023-11-19T09:06:13;11.20;99.90
53208;DHT22;39093;52.788;6.940;2023-11-19T09:08:41;11.10;99.90
53208;DHT22;39093;52.788;6.940;2023-11-19T09:11:09;11.10;99.90
53208;DHT22;39093;52.788;6.940;2023-11-19T09:13:36;11.10;99.90
53208;DHT22;39093;52.788;6.940;2023-11-19T09:16:03;11.10;99.90
53208;DHT22;39093;52.788;6.940;2023-11-19T09:18:31;11.00;99.90
53208;DHT22;39093;52.788;6.940;2023-11-19T09:20:58;11.00;99.90
53208;DHT22;39093;52.788;6.940;2023-11-19T09:23:26;11.00;99.90
53208;DHT22;39093;52.788;6.940;2023-11-19T09:25:54;11.00;99.90
53208;DHT22;39093;52.788;6.940;2023-11-19T09:28:21;11.00;99.90
53208;DHT22;39093;52.788;6.940;2023-11-19T09:30:48;10.90;99.90
53208;DHT22;39093;52.788;6.940;2023-11-19T09:33:15;10.90;99.90
53208;DHT22;39093;52.788;6.940;2023-11-19T09:35:42;10.80;99.90
53208;DHT22;39093;52.788;6.940;2023-11-19T09:38:09;10.80;99.90
53208;DHT22;39093;52.788;6.940;2023-11-19T09:40:36;10.80;99.90
53208;DHT22;39093;52.788;6.940;2023-11-19T09:43:05;10.80;99.90
53208;DHT22;39093;52.788;6.940;2023-11-19T09:45:47;10.80;99.90
53208;DHT22;39093;52.788;6.940;2023-11-19T09:48:17;10.90;99.90
53208;DHT22;39093;52.788;6.940;2023-11-19T09:50:47;11.00;99.90
53208;DHT22;39093;52.788;6.940;2023-11-19T09:53:17;11.00;99.90
53208;DHT22;39093;52.788;6.940;2023-11-19T09:55:45;11.00;99.90
53208;DHT22;39093;52.788;6.940;2023-11-19T09:58:13;11.00;99.90
53208;DHT22;39093;52.788;6.940;2023-11-19T10:00:42;11.10;99.90
53208;DHT22;39093;52.788;6.940;2023-11-19T10:03:11;11.10;99.90
53208;DHT22;39093;52.788;6.940;2023-11-19T10:05:39;11.20;99.90
53208;DHT22;39093;52.788;6.940;2023-11-19T10:08:07;11.30;99.90
53208;DHT22;39093;52.788;6.940;2023-11-19T10:10:35;11.20;99.90
53208;DHT22;39093;52.788;6.940;2023-11-19T10:13:02;11.40;99.90
53208;DHT22;39093;52.788;6.940;2023-11-19T10:15:33;11.40;99.90
53208;DHT22;39093;52.788;6.940;2023-11-19T10:18:02;11.50;99.90
53208;DHT22;39093;52.788;6.940;2023-11-19T10:20:37;11.60;99.90
53208;DHT22;39093;52.788;6.940;2023-11-19T10:23:07;11.70;99.90
53208;DHT22;39093;52.788;6.940;2023-11-19T10:25:34;11.60;99.90
53208;DHT22;39093;52.788;6.940;2023-11-19T10:28:01;11.50;99.90
53208;DHT22;39093;52.788;6.940;2023-11-19T10:30:30;11.50;99.90
53208;DHT22;39093;52.788;6.940;2023-11-19T10:33:08;11.70;99.90
53208;DHT22;39093;52.788;6.940;2023-11-19T10:35:51;11.60;99.90
53208;DHT22;39093;52.788;6.940;2023-11-19T10:38:25;11.60;99.90
53208;DHT22;39093;52.788;6.940;2023-11-19T10:40:52;11.60;99.90
53208;DHT22;39093;52.788;6.940;2023-11-19T10:43:22;11.60;99.90
53208;DHT22;39093;52.788;6.940;2023-11-19T10:45:50;11.50;99.90
53208;DHT22;39093;52.788;6.940;2023-11-19T10:48:18;11.50;99.90
53208;DHT22;39093;52.788;6.940;2023-11-19T10:50:46;11.50;99.90
53208;DHT22;39093;52.788;6.940;2023-11-19T10:53:17;11.50;99.90
53208;DHT22;39093;52.788;6.940;2023-11-19T10:55:47;11.30;99.90
53208;DHT22;39093;52.788;6.940;2023-11-19T10:58:16;11.20;99.90
53208;DHT22;39093;52.788;6.940;2023-11-19T11:00:48;11.20;99.90
53208;DHT22;39093;52.788;6.940;2023-11-19T11:03:18;11.20;99.90
53208;DHT22;39093;52.788;6.940;2023-11-19T11:05:47;11.20;99.90
53208;DHT22;39093;52.788;6.940;2023-11-19T11:08:15;11.10;99.90
53208;DHT22;39093;52.788;6.940;2023-11-19T11:10:54;11.10;99.90
53208;DHT22;39093;52.788;6.940;2023-11-19T11:13:25;11.10;99.90
53208;DHT22;39093;52.788;6.940;2023-11-19T11:15:56;11.10;99.90
53208;DHT22;39093;52.788;6.940;2023-11-19T11:18:25;11.20;99.90
53208;DHT22;39093;52.788;6.940;2023-11-19T11:20:55;11.30;99.90
53208;DHT22;39093;52.788;6.940;2023-11-19T11:28:42;11.30;99.90
53208;DHT22;39093;52.788;6.940;2023-11-19T11:31:41;11.40;99.90
53208;DHT22;39093;52.788;6.940;2023-11-19T11:34:43;11.30;99.90
53208;DHT22;39093;52.788;6.940;2023-11-19T11:39:52;11.30;99.90
53208;DHT22;39093;52.788;6.940;2023-11-19T11:45:07;11.40;99.90
53208;DHT22;39093;52.788;6.940;2023-11-19T11:50:16;11.40;99.90
53208;DHT22;39093;52.788;6.940;2023-11-19T11:55:33;11.40;99.90
53208;DHT22;39093;52.788;6.940;2023-11-19T11:58:01;11.50;99.90
53208;DHT22;39093;52.788;6.940;2023-11-19T12:00:32;11.60;99.90
53208;DHT22;39093;52.788;6.940;2023-11-19T12:03:01;11.50;99.90
53208;DHT22;39093;52.788;6.940;2023-11-19T12:05:29;11.40;99.90
53208;DHT22;39093;52.788;6.940;2023-11-19T12:08:01;11.50;99.90
53208;DHT22;39093;52.788;6.940;2023-11-19T12:10:54;11.40;99.90
53208;DHT22;39093;52.788;6.940;2023-11-19T12:13:20;11.40;99.90
53208;DHT22;39093;52.788;6.940;2023-11-19T12:18:24;11.30;99.90
53208;DHT22;39093;52.788;6.940;2023-11-19T12:20:53;11.30;99.90
53208;DHT22;39093;52.788;6.940;2023-11-19T12:23:20;11.40;99.90
53208;DHT22;39093;52.788;6.940;2023-11-19T12:25:47;11.40;99.90
53208;DHT22;39093;52.788;6.940;2023-11-19T12:28:15;11.30;99.90
53208;DHT22;39093;52.788;6.940;2023-11-19T12:30:44;11.30;99.90
53208;DHT22;39093;52.788;6.940;2023-11-19T12:33:12;11.30;99.90
53208;DHT22;39093;52.788;6.940;2023-11-19T12:38:24;11.30;99.90
53208;DHT22;39093;52.788;6.940;2023-11-19T12:41:08;11.20;99.90
53208;DHT22;39093;52.788;6.940;2023-11-19T12:43:39;11.20;99.90
53208;DHT22;39093;52.788;6.940;2023-11-19T12:48:50;11.20;99.90
53208;DHT22;39093;52.788;6.940;2023-11-19T12:51:18;11.20;99.90
53208;DHT22;39093;52.788;6.940;2023-11-19T12:53:48;11.20;99.90
53208;DHT22;39093;52.788;6.940;2023-11-19T12:56:17;11.30;99.90
53208;DHT22;39093;52.788;6.940;2023-11-19T12:58:44;11.30;99.90
53208;DHT22;39093;52.788;6.940;2023-11-19T13:01:18;11.30;99.90
53208;DHT22;39093;52.788;6.940;2023-11-19T13:03:47;11.30;99.90
53208;DHT22;39093;52.788;6.940;2023-11-19T13:06:16;11.30;99.90
53208;DHT22;39093;52.788;6.940;2023-11-19T13:08:44;11.30;99.90
53208;DHT22;39093;52.788;6.940;2023-11-19T13:11:13;11.40;99.90
53208;DHT22;39093;52.788;6.940;2023-11-19T13:13:56;11.40;99.90
53208;DHT22;39093;52.788;6.940;2023-11-19T13:16:24;11.40;99.90
53208;DHT22;39093;52.788;6.940;2023-11-19T13:18:52;11.40;99.90
53208;DHT22;39093;52.788;6.940;2023-11-19T13:21:19;11.40;99.90
53208;DHT22;39093;52.788;6.940;2023-11-19T13:23:46;11.40;99.90
53208;DHT22;39093;52.788;6.940;2023-11-19T13:26:13;11.50;99.90
53208;DHT22;39093;52.788;6.940;2023-11-19T13:28:40;11.40;99.90
53208;DHT22;39093;52.788;6.940;2023-11-19T13:31:07;11.40;99.90
53208;DHT22;39093;52.788;6.940;2023-11-19T13:33:34;11.40;99.90
53208;DHT22;39093;52.788;6.940;2023-11-19T13:36:02;11.40;99.90
53208;DHT22;39093;52.788;6.940;2023-11-19T13:38:33;11.40;99.90
53208;DHT22;39093;52.788;6.940;2023-11-19T13:41:00;11.30;99.90
53208;DHT22;39093;52.788;6.940;2023-11-19T13:43:27;11.30;99.90
53208;DHT22;39093;52.788;6.940;2023-11-19T13:45:55;11.20;99.90
53208;DHT22;39093;52.788;6.940;2023-11-19T13:48:22;11.20;99.90
53208;DHT22;39093;52.788;6.940;2023-11-19T13:50:50;11.20;99.90
53208;DHT22;39093;52.788;6.940;2023-11-19T13:53:17;11.20;99.90
53208;DHT22;39093;52.788;6.940;2023-11-19T13:55:44;11.20;99.90
53208;DHT22;39093;52.788;6.940;2023-11-19T13:58:11;11.30;99.90
53208;DHT22;39093;52.788;6.940;2023-11-19T14:00:38;11.30;99.90
53208;DHT22;39093;52.788;6.940;2023-11-19T14:03:05;11.40;99.90
53208;DHT22;39093;52.788;6.940;2023-11-19T14:05:32;11.30;99.90
53208;DHT22;39093;52.788;6.940;2023-11-19T14:08:02;11.30;99.90
53208;DHT22;39093;52.788;6.940;2023-11-19T14:10:39;11.30;99.90
53208;DHT22;39093;52.788;6.940;2023-11-19T14:13:09;11.30;99.90
53208;DHT22;39093;52.788;6.940;2023-11-19T14:15:38;11.30;99.90
53208;DHT22;39093;52.788;6.940;2023-11-19T14:18:05;11.30;99.90
53208;DHT22;39093;52.788;6.940;2023-11-19T14:20:32;11.20;99.90
53208;DHT22;39093;52.788;6.940;2023-11-19T14:22:59;11.20;99.90
53208;DHT22;39093;52.788;6.940;2023-11-19T14:25:26;11.10;99.90
53208;DHT22;39093;52.788;6.940;2023-11-19T14:27:53;11.10;99.90
53208;DHT22;39093;52.788;6.940;2023-11-19T14:30:20;11.10;99.90
53208;DHT22;39093;52.788;6.940;2023-11-19T14:32:47;11.10;99.90
53208;DHT22;39093;52.788;6.940;2023-11-19T14:35:15;11.00;99.90
53208;DHT22;39093;52.788;6.940;2023-11-19T14:37:42;11.00;99.90
53208;DHT22;39093;52.788;6.940;2023-11-19T14:40:09;11.00;99.90
53208;DHT22;39093;52.788;6.940;2023-11-19T14:42:38;10.90;99.90
53208;DHT22;39093;52.788;6.940;2023-11-19T14:45:08;10.90;99.90
53208;DHT22;39093;52.788;6.940;2023-11-19T14:47:39;10.90;99.90
53208;DHT22;39093;52.788;6.940;2023-11-19T14:50:06;10.90;99.90
53208;DHT22;39093;52.788;6.940;2023-11-19T14:52:35;10.80;99.90
53208;DHT22;39093;52.788;6.940;2023-11-19T14:55:04;10.90;99.90
53208;DHT22;39093;52.788;6.940;2023-11-19T14:57:31;10.80;99.90
53208;DHT22;39093;52.788;6.940;2023-11-19T14:59:58;10.90;99.90
53208;DHT22;39093;52.788;6.940;2023-11-19T15:02:25;10.90;99.90
53208;DHT22;39093;52.788;6.940;2023-11-19T15:04:52;10.80;99.90
53208;DHT22;39093;52.788;6.940;2023-11-19T15:07:20;10.80;99.90
53208;DHT22;39093;52.788;6.940;2023-11-19T15:09:48;10.80;99.90
53208;DHT22;39093;52.788;6.940;2023-11-19T15:12:15;10.80;99.90
53208;DHT22;39093;52.788;6.940;2023-11-19T15:14:43;10.80;99.90
53208;DHT22;39093;52.788;6.940;2023-11-19T15:17:09;10.90;99.90
53208;DHT22;39093;52.788;6.940;2023-11-19T15:19:37;10.80;99.90
53208;DHT22;39093;52.788;6.940;2023-11-19T15:22:04;11.00;99.90
53208;DHT22;39093;52.788;6.940;2023-11-19T15:24:32;10.80;99.90
53208;DHT22;39093;52.788;6.940;2023-11-19T15:26:59;10.80;99.90
53208;DHT22;39093;52.788;6.940;2023-11-19T15:29:29;10.80;99.90
53208;DHT22;39093;52.788;6.940;2023-11-19T15:31:56;10.80;99.90
53208;DHT22;39093;52.788;6.940;2023-11-19T15:34:23;10.80;99.90
53208;DHT22;39093;52.788;6.940;2023-11-19T15:36:50;10.80;99.90
53208;DHT22;39093;52.788;6.940;2023-11-19T15:39:18;10.80;99.90
53208;DHT22;39093;52.788;6.940;2023-11-19T15:41:45;10.80;99.90
53208;DHT22;39093;52.788;6.940;2023-11-19T15:44:12;10.80;99.90
53208;DHT22;39093;52.788;6.940;2023-11-19T15:46:42;10.80;99.90
53208;DHT22;39093;52.788;6.940;2023-11-19T15:49:09;10.80;99.90
53208;DHT22;39093;52.788;6.940;2023-11-19T15:51:37;10.80;99.90
53208;DHT22;39093;52.788;6.940;2023-11-19T15:54:04;10.70;99.90
53208;DHT22;39093;52.788;6.940;2023-11-19T15:56:32;10.80;99.90
53208;DHT22;39093;52.788;6.940;2023-11-19T15:58:59;10.70;99.90
53208;DHT22;39093;52.788;6.940;2023-11-19T16:01:26;10.80;99.90